createdAt,value
2018-10-18T00:00:54.556Z,19.54
2018-10-18T00:01:54.795Z,19.54
2018-10-18T00:02:54.687Z,19.53
2018-10-18T00:03:55.827Z,19.53
2018-10-18T00:04:54.863Z,19.53
2018-10-18T00:05:54.699Z,19.53
2018-10-18T00:06:55.296Z,19.53
2018-10-18T00:07:55.110Z,19.53
2018-10-18T00:08:54.728Z,19.53
2018-10-18T00:09:54.734Z,19.52
2018-10-18T00:10:54.813Z,19.53
2018-10-18T00:11:54.514Z,19.52
2018-10-18T00:12:54.508Z,19.52
2018-10-18T00:13:54.590Z,19.52
2018-10-18T00:14:54.652Z,19.52
2018-10-18T00:15:54.703Z,19.52
2018-10-18T00:16:54.712Z,19.52
2018-10-18T00:17:54.684Z,19.52
2018-10-18T00:18:54.856Z,19.52
2018-10-18T00:19:54.813Z,19.52
2018-10-18T00:20:54.501Z,19.53
2018-10-18T00:21:54.617Z,19.52
2018-10-18T00:22:54.661Z,19.52
2018-10-18T00:23:54.840Z,19.52
2018-10-18T00:24:54.624Z,19.52
2018-10-18T00:25:54.628Z,19.51
2018-10-18T00:26:54.644Z,19.51
2018-10-18T00:27:54.611Z,19.51
2018-10-18T00:28:54.622Z,19.52
2018-10-18T00:29:55.844Z,19.52
2018-10-18T00:30:54.850Z,19.52
2018-10-18T00:31:54.801Z,19.51
2018-10-18T00:32:54.659Z,19.51
2018-10-18T00:33:54.709Z,19.51
2018-10-18T00:34:55.795Z,19.51
2018-10-18T00:35:54.697Z,19.51
2018-10-18T00:36:54.660Z,19.51
2018-10-18T00:37:54.736Z,19.5
2018-10-18T00:38:54.626Z,19.51
2018-10-18T00:39:54.647Z,19.5
2018-10-18T00:40:54.601Z,19.51
2018-10-18T00:41:54.690Z,19.51
2018-10-18T00:42:54.488Z,19.5
2018-10-18T00:43:54.586Z,19.5
2018-10-18T00:44:54.685Z,19.5
2018-10-18T00:45:54.549Z,19.51
2018-10-18T00:46:54.628Z,19.51
2018-10-18T00:47:54.929Z,19.5
2018-10-18T00:48:54.660Z,19.51
2018-10-18T00:49:54.738Z,19.5
2018-10-18T00:50:54.765Z,19.51
2018-10-18T00:51:54.683Z,19.5
2018-10-18T00:52:54.894Z,19.5
2018-10-18T00:53:54.557Z,19.49
2018-10-18T00:54:54.908Z,19.5
2018-10-18T00:55:54.541Z,19.49
2018-10-18T00:56:54.632Z,19.5
2018-10-18T00:57:55.804Z,19.49
2018-10-18T00:58:54.880Z,19.49
2018-10-18T00:59:54.582Z,19.49
2018-10-18T01:00:54.675Z,19.48
2018-10-18T01:01:54.480Z,19.48
2018-10-18T01:02:54.658Z,19.49
2018-10-18T01:03:54.702Z,19.48
2018-10-18T01:04:54.565Z,19.48
2018-10-18T01:05:54.511Z,19.49
2018-10-18T01:06:54.655Z,19.49
2018-10-18T01:07:54.529Z,19.48
2018-10-18T01:08:54.612Z,19.48
2018-10-18T01:09:54.811Z,19.48
2018-10-18T01:10:54.666Z,19.48
2018-10-18T01:11:54.956Z,19.48
2018-10-18T01:12:54.795Z,19.48
2018-10-18T01:13:54.972Z,19.48
2018-10-18T01:14:54.648Z,19.49
2018-10-18T01:15:54.571Z,19.47
2018-10-18T01:16:54.566Z,19.48
2018-10-18T01:17:54.636Z,19.49
2018-10-18T01:18:54.584Z,19.48
2018-10-18T01:19:54.557Z,19.48
2018-10-18T01:20:54.537Z,19.48
2018-10-18T01:21:54.405Z,19.47
2018-10-18T01:22:54.560Z,19.47
2018-10-18T01:23:54.712Z,19.46
2018-10-18T01:24:54.478Z,19.47
2018-10-18T01:25:54.633Z,19.46
2018-10-18T01:26:54.486Z,19.46
2018-10-18T01:27:54.588Z,19.45
2018-10-18T01:28:55.151Z,19.47
2018-10-18T01:29:54.723Z,19.46
2018-10-18T01:30:54.661Z,19.46
2018-10-18T01:31:54.657Z,19.46
2018-10-18T01:32:54.659Z,19.47
2018-10-18T01:33:54.587Z,19.46
2018-10-18T01:34:54.547Z,19.45
2018-10-18T01:35:54.660Z,19.46
2018-10-18T01:36:55.002Z,19.45
2018-10-18T01:37:54.852Z,19.46
2018-10-18T01:38:54.441Z,19.46
2018-10-18T01:39:54.547Z,19.46
2018-10-18T01:40:54.449Z,19.44
2018-10-18T01:41:54.729Z,19.45
2018-10-18T01:42:54.662Z,19.45
2018-10-18T01:43:54.911Z,19.45
2018-10-18T01:44:54.522Z,19.45
2018-10-18T01:45:54.641Z,19.45
2018-10-18T01:46:54.695Z,19.44
2018-10-18T01:47:55.071Z,19.44
2018-10-18T01:48:54.560Z,19.45
2018-10-18T01:49:54.495Z,19.44
2018-10-18T01:50:54.944Z,19.44
2018-10-18T01:51:54.529Z,19.44
2018-10-18T01:52:54.568Z,19.44
2018-10-18T01:53:54.580Z,19.44
2018-10-18T01:54:54.623Z,19.43
2018-10-18T01:55:54.575Z,19.44
2018-10-18T01:56:54.495Z,19.44
2018-10-18T01:57:54.522Z,19.44
2018-10-18T01:58:54.505Z,19.43
2018-10-18T01:59:55.821Z,19.44
2018-10-18T02:00:54.546Z,19.44
2018-10-18T02:01:54.727Z,19.43
2018-10-18T02:02:54.611Z,19.44
2018-10-18T02:03:54.451Z,19.43
2018-10-18T02:04:54.576Z,19.44
2018-10-18T02:05:54.773Z,19.43
2018-10-18T02:06:54.455Z,19.44
2018-10-18T02:07:54.611Z,19.43
2018-10-18T02:08:55.022Z,19.43
2018-10-18T02:09:54.746Z,19.43
2018-10-18T02:10:54.734Z,19.43
2018-10-18T02:11:54.545Z,19.43
2018-10-18T02:12:54.560Z,19.43
2018-10-18T02:13:54.449Z,19.42
2018-10-18T02:14:54.942Z,19.42
2018-10-18T02:15:54.635Z,19.43
2018-10-18T02:16:54.475Z,19.43
2018-10-18T02:17:54.986Z,19.42
2018-10-18T02:18:54.656Z,19.42
2018-10-18T02:19:54.635Z,19.42
2018-10-18T02:20:54.623Z,19.43
2018-10-18T02:21:54.571Z,19.42
2018-10-18T02:22:54.539Z,19.41
2018-10-18T02:23:54.504Z,19.42
2018-10-18T02:24:54.491Z,19.42
2018-10-18T02:25:54.568Z,19.43
2018-10-18T02:26:54.524Z,19.42
2018-10-18T02:27:54.532Z,19.42
2018-10-18T02:28:54.641Z,19.42
2018-10-18T02:29:54.986Z,19.42
2018-10-18T02:30:54.543Z,19.41
2018-10-18T02:31:54.663Z,19.41
2018-10-18T02:32:54.527Z,19.42
2018-10-18T02:33:54.473Z,19.41
2018-10-18T02:34:55.006Z,19.42
2018-10-18T02:35:54.948Z,19.4
2018-10-18T02:36:54.596Z,19.41
2018-10-18T02:37:54.622Z,19.41
2018-10-18T02:38:54.568Z,19.42
2018-10-18T02:39:54.400Z,19.41
2018-10-18T02:40:54.538Z,19.42
2018-10-18T02:41:54.775Z,19.42
2018-10-18T02:42:54.780Z,19.42
2018-10-18T02:43:54.852Z,19.42
2018-10-18T02:44:54.634Z,19.41
2018-10-18T02:45:54.595Z,19.41
2018-10-18T02:46:54.760Z,19.41
2018-10-18T02:47:55.235Z,19.41
2018-10-18T02:48:54.524Z,19.41
2018-10-18T02:49:54.839Z,19.41
2018-10-18T02:50:54.628Z,19.41
2018-10-18T02:51:54.685Z,19.41
2018-10-18T02:52:54.384Z,19.41
2018-10-18T02:53:54.584Z,19.41
2018-10-18T02:54:54.797Z,19.4
2018-10-18T02:55:54.754Z,19.4
2018-10-18T02:56:54.922Z,19.41
2018-10-18T02:57:54.525Z,19.39
2018-10-18T02:58:54.746Z,19.4
2018-10-18T02:59:54.537Z,19.4
2018-10-18T03:00:54.451Z,19.4
2018-10-18T03:01:54.657Z,19.4
2018-10-18T03:02:54.711Z,19.4
2018-10-18T03:03:54.667Z,19.41
2018-10-18T03:04:54.607Z,19.39
2018-10-18T03:05:54.648Z,19.4
2018-10-18T03:06:54.543Z,19.4
2018-10-18T03:07:54.527Z,19.4
2018-10-18T03:08:54.777Z,19.4
2018-10-18T03:09:54.749Z,19.39
2018-10-18T03:10:54.473Z,19.4
2018-10-18T03:11:54.735Z,19.4
2018-10-18T03:12:54.977Z,19.4
2018-10-18T03:13:54.542Z,19.4
2018-10-18T03:14:54.707Z,19.4
2018-10-18T03:15:54.941Z,19.4
2018-10-18T03:16:54.597Z,19.4
2018-10-18T03:17:54.660Z,19.4
2018-10-18T03:18:54.387Z,19.39
2018-10-18T03:19:54.520Z,19.4
2018-10-18T03:20:54.517Z,19.39
2018-10-18T03:21:54.495Z,19.39
2018-10-18T03:22:54.656Z,19.39
2018-10-18T03:23:54.736Z,19.4
2018-10-18T03:24:54.674Z,19.4
2018-10-18T03:25:54.630Z,19.4
2018-10-18T03:26:54.501Z,19.39
2018-10-18T03:27:54.620Z,19.38
2018-10-18T03:28:54.888Z,19.39
2018-10-18T03:29:54.530Z,19.39
2018-10-18T03:30:54.555Z,19.4
2018-10-18T03:31:54.699Z,19.39
2018-10-18T03:32:54.574Z,19.38
2018-10-18T03:33:54.676Z,19.38
2018-10-18T03:34:54.564Z,19.39
2018-10-18T03:35:54.597Z,19.4
2018-10-18T03:36:54.701Z,19.39
2018-10-18T03:37:54.535Z,19.38
2018-10-18T03:38:54.917Z,19.38
2018-10-18T03:39:54.517Z,19.39
2018-10-18T03:40:54.572Z,19.38
2018-10-18T03:41:54.899Z,19.38
2018-10-18T03:42:54.754Z,19.38
2018-10-18T03:43:54.497Z,19.38
2018-10-18T03:44:54.481Z,19.38
2018-10-18T03:45:54.606Z,19.37
2018-10-18T03:46:54.852Z,19.38
2018-10-18T03:47:54.714Z,19.37
2018-10-18T03:48:54.589Z,19.37
2018-10-18T03:49:54.535Z,19.37
2018-10-18T03:50:54.684Z,19.37
2018-10-18T03:51:54.583Z,19.38
2018-10-18T03:52:54.853Z,19.38
2018-10-18T03:53:54.458Z,19.37
2018-10-18T03:54:54.476Z,19.36
2018-10-18T03:55:54.632Z,19.37
2018-10-18T03:56:54.692Z,19.38
2018-10-18T03:57:54.643Z,19.36
2018-10-18T03:58:54.541Z,19.36
2018-10-18T03:59:54.645Z,19.35
2018-10-18T04:00:54.893Z,19.36
2018-10-18T04:01:54.436Z,19.37
2018-10-18T04:02:54.471Z,19.37
2018-10-18T04:03:54.821Z,19.37
2018-10-18T04:04:54.554Z,19.36
2018-10-18T04:05:54.620Z,19.37
2018-10-18T04:06:54.673Z,19.36
2018-10-18T04:07:54.855Z,19.35
2018-10-18T04:08:54.680Z,19.35
2018-10-18T04:09:54.478Z,19.35
2018-10-18T04:10:54.680Z,19.36
2018-10-18T04:11:54.455Z,19.36
2018-10-18T04:12:54.772Z,19.35
2018-10-18T04:13:54.613Z,19.36
2018-10-18T04:14:54.482Z,19.36
2018-10-18T04:15:54.692Z,19.35
2018-10-18T04:16:54.512Z,19.36
2018-10-18T04:17:54.602Z,19.36
2018-10-18T04:18:54.831Z,19.36
2018-10-18T04:19:54.698Z,19.36
2018-10-18T04:20:54.640Z,19.36
2018-10-18T04:21:54.850Z,19.36
2018-10-18T04:22:54.522Z,19.35
2018-10-18T04:23:54.597Z,19.35
2018-10-18T04:24:54.578Z,19.35
2018-10-18T04:25:54.878Z,19.36
2018-10-18T04:26:54.940Z,19.35
2018-10-18T04:27:54.799Z,19.35
2018-10-18T04:28:54.519Z,19.35
2018-10-18T04:29:54.514Z,19.35
2018-10-18T04:30:54.538Z,19.34
2018-10-18T04:31:54.925Z,19.35
2018-10-18T04:32:54.654Z,19.35
2018-10-18T04:33:54.499Z,19.35
2018-10-18T04:34:54.541Z,19.35
2018-10-18T04:35:54.675Z,19.36
2018-10-18T04:36:54.628Z,19.36
2018-10-18T04:37:54.762Z,19.36
2018-10-18T04:38:54.467Z,19.35
2018-10-18T04:39:54.565Z,19.35
2018-10-18T04:40:54.696Z,19.35
2018-10-18T04:41:54.406Z,19.35
2018-10-18T04:42:54.461Z,19.36
2018-10-18T04:43:54.425Z,19.35
2018-10-18T04:44:54.505Z,19.35
2018-10-18T04:45:54.598Z,19.34
2018-10-18T04:46:54.597Z,19.35
2018-10-18T04:47:54.684Z,19.35
2018-10-18T04:48:54.683Z,19.36
2018-10-18T04:49:54.503Z,19.36
2018-10-18T04:50:54.527Z,19.36
2018-10-18T04:51:54.527Z,19.35
2018-10-18T04:52:54.615Z,19.36
2018-10-18T04:53:54.869Z,19.35
2018-10-18T04:54:54.499Z,19.36
2018-10-18T04:55:54.549Z,19.35
2018-10-18T04:56:54.700Z,19.36
2018-10-18T04:57:54.507Z,19.35
2018-10-18T04:58:54.711Z,19.35
2018-10-18T04:59:54.740Z,19.35
2018-10-18T05:00:54.592Z,19.35
2018-10-18T05:01:54.597Z,19.35
2018-10-18T05:02:54.543Z,19.35
2018-10-18T05:03:54.837Z,19.35
2018-10-18T05:04:54.643Z,19.35
2018-10-18T05:05:54.447Z,19.36
2018-10-18T05:06:54.514Z,19.34
2018-10-18T05:07:54.568Z,19.35
2018-10-18T05:08:54.443Z,19.35
2018-10-18T05:09:54.679Z,19.34
2018-10-18T05:10:54.563Z,19.34
2018-10-18T05:11:54.501Z,19.33
2018-10-18T05:12:54.520Z,19.34
2018-10-18T05:13:54.436Z,19.34
2018-10-18T05:14:54.337Z,19.35
2018-10-18T05:15:54.524Z,19.35
2018-10-18T05:16:55.031Z,19.35
2018-10-18T05:17:54.510Z,19.36
2018-10-18T05:18:54.738Z,19.34
2018-10-18T05:19:54.825Z,19.35
2018-10-18T05:20:54.418Z,19.35
2018-10-18T05:21:54.369Z,19.35
2018-10-18T05:22:54.607Z,19.34
2018-10-18T05:23:54.741Z,19.35
2018-10-18T05:24:54.713Z,19.35
2018-10-18T05:25:54.488Z,19.34
2018-10-18T05:26:54.791Z,19.35
2018-10-18T05:27:54.554Z,19.35
2018-10-18T05:28:54.817Z,19.35
2018-10-18T05:29:54.478Z,19.35
2018-10-18T05:30:54.550Z,19.37
2018-10-18T05:31:54.604Z,19.37
2018-10-18T05:32:54.441Z,19.24
2018-10-18T05:33:54.842Z,19.06
2018-10-18T05:34:54.478Z,18.98
2018-10-18T05:35:54.625Z,18.73
2018-10-18T05:36:54.413Z,18.7
2018-10-18T05:37:54.711Z,18.76
2018-10-18T05:38:54.583Z,18.78
2018-10-18T05:39:54.818Z,18.82
2018-10-18T05:40:54.516Z,18.86
2018-10-18T05:41:54.591Z,18.89
2018-10-18T05:42:55.079Z,18.91
2018-10-18T05:43:54.443Z,18.93
2018-10-18T05:44:54.783Z,18.96
2018-10-18T05:45:54.606Z,18.98
2018-10-18T05:46:54.694Z,19
2018-10-18T05:47:54.489Z,19.02
2018-10-18T05:48:54.295Z,19.03
2018-10-18T05:49:54.486Z,19.03
2018-10-18T05:50:54.460Z,19.05
2018-10-18T05:51:54.654Z,19.06
2018-10-18T05:52:54.561Z,19.06
2018-10-18T05:53:55.029Z,19.07
2018-10-18T05:54:54.625Z,19.08
2018-10-18T05:55:54.792Z,19.09
2018-10-18T05:56:54.410Z,19.1
2018-10-18T05:57:54.359Z,19.1
2018-10-18T05:58:54.609Z,19.11
2018-10-18T05:59:54.533Z,19.12
2018-10-18T06:00:54.605Z,19.11
2018-10-18T06:01:54.498Z,19.12
2018-10-18T06:02:54.545Z,19.12
2018-10-18T06:03:54.558Z,19.14
2018-10-18T06:04:54.670Z,19.13
2018-10-18T06:05:54.535Z,19.13
2018-10-18T06:06:54.491Z,19.13
2018-10-18T06:07:54.576Z,19.15
2018-10-18T06:08:54.594Z,19.15
2018-10-18T06:09:54.663Z,19.16
2018-10-18T06:10:54.490Z,19.16
2018-10-18T06:11:54.502Z,19.16
2018-10-18T06:12:54.433Z,19.16
2018-10-18T06:13:54.620Z,19.16
2018-10-18T06:14:54.590Z,19.18
2018-10-18T06:15:54.359Z,19.19
2018-10-18T06:16:54.516Z,19.18
2018-10-18T06:17:54.649Z,19.17
2018-10-18T06:18:54.562Z,19.19
2018-10-18T06:19:54.664Z,19.18
2018-10-18T06:20:54.528Z,19.19
2018-10-18T06:21:54.889Z,19.18
2018-10-18T06:22:54.416Z,19.2
2018-10-18T06:23:54.635Z,19.19
2018-10-18T06:24:54.425Z,19.21
2018-10-18T06:25:54.461Z,19.19
2018-10-18T06:26:54.513Z,19.2
2018-10-18T06:27:54.544Z,19.2
2018-10-18T06:28:54.565Z,19.21
2018-10-18T06:29:54.606Z,19.21
2018-10-18T06:30:54.655Z,19.21
2018-10-18T06:31:54.527Z,19.22
2018-10-18T06:32:54.423Z,19.22
2018-10-18T06:33:54.874Z,19.22
2018-10-18T06:34:54.374Z,19.22
2018-10-18T06:35:54.474Z,19.22
2018-10-18T06:36:54.544Z,19.22
2018-10-18T06:37:54.515Z,19.22
2018-10-18T06:38:54.847Z,19.23
2018-10-18T06:39:54.498Z,19.21
2018-10-18T06:40:54.462Z,19.23
2018-10-18T06:41:54.509Z,19.23
2018-10-18T06:42:54.416Z,19.22
2018-10-18T06:43:54.527Z,19.22
2018-10-18T06:44:54.307Z,19.22
2018-10-18T06:45:54.272Z,19.23
2018-10-18T06:46:54.834Z,19.23
2018-10-18T06:47:54.912Z,19.22
2018-10-18T06:48:54.761Z,19.23
2018-10-18T06:49:54.385Z,19.23
2018-10-18T06:50:54.292Z,19.24
2018-10-18T06:51:54.786Z,19.23
2018-10-18T06:52:54.589Z,19.24
2018-10-18T06:53:54.628Z,19.22
2018-10-18T06:54:54.760Z,19.21
2018-10-18T06:55:54.531Z,19.22
2018-10-18T06:56:54.802Z,19.21
2018-10-18T06:57:54.606Z,19.21
2018-10-18T06:58:54.473Z,19.22
2018-10-18T06:59:54.663Z,19.22
2018-10-18T07:00:54.354Z,19.22
2018-10-18T07:01:54.550Z,19.22
2018-10-18T07:02:54.422Z,19.23
2018-10-18T07:03:54.520Z,19.22
2018-10-18T07:04:54.782Z,19.23
2018-10-18T07:05:54.546Z,19.24
2018-10-18T07:06:54.461Z,19.23
2018-10-18T07:07:55.088Z,19.23
2018-10-18T07:08:54.648Z,19.23
2018-10-18T07:09:54.617Z,19.24
2018-10-18T07:10:54.829Z,19.24
2018-10-18T07:11:54.831Z,19.24
2018-10-18T07:12:54.460Z,19.24
2018-10-18T07:13:54.449Z,19.24
2018-10-18T07:14:54.533Z,19.25
2018-10-18T07:15:54.772Z,19.25
2018-10-18T07:16:54.412Z,19.24
2018-10-18T07:17:54.574Z,19.24
2018-10-18T07:18:54.440Z,19.24
2018-10-18T07:19:54.657Z,19.24
2018-10-18T07:20:54.541Z,19.26
2018-10-18T07:21:54.501Z,19.24
2018-10-18T07:22:54.696Z,19.24
2018-10-18T07:23:54.594Z,19.23
2018-10-18T07:24:54.417Z,19.25
2018-10-18T07:25:54.645Z,19.25
2018-10-18T07:26:54.413Z,19.24
2018-10-18T07:27:54.508Z,19.23
2018-10-18T07:28:54.548Z,19.23
2018-10-18T07:29:54.286Z,19.25
2018-10-18T07:30:54.683Z,19.24
2018-10-18T07:31:54.569Z,19.24
2018-10-18T07:32:54.661Z,19.25
2018-10-18T07:33:55.096Z,19.24
2018-10-18T07:34:54.406Z,19.24
2018-10-18T07:35:54.563Z,19.25
2018-10-18T07:36:54.469Z,19.24
2018-10-18T07:37:54.604Z,19.23
2018-10-18T07:38:54.466Z,19.24
2018-10-18T07:39:54.561Z,19.25
2018-10-18T07:40:54.522Z,19.25
2018-10-18T07:41:54.628Z,19.23
2018-10-18T07:42:54.304Z,19.23
2018-10-18T07:43:54.859Z,19.24
2018-10-18T07:44:54.393Z,19.24
2018-10-18T07:45:54.523Z,19.25
2018-10-18T07:46:54.539Z,19.24
2018-10-18T07:47:54.993Z,19.24
2018-10-18T07:48:54.486Z,19.24
2018-10-18T07:49:54.478Z,19.24
2018-10-18T07:50:54.512Z,19.25
2018-10-18T07:51:54.436Z,19.25
2018-10-18T07:52:54.499Z,19.24
2018-10-18T07:53:54.541Z,19.25
2018-10-18T07:54:54.516Z,19.24
2018-10-18T07:55:54.545Z,19.26
2018-10-18T07:56:54.244Z,19.24
2018-10-18T07:57:54.417Z,19.24
2018-10-18T07:58:54.571Z,19.25
2018-10-18T07:59:54.575Z,19.26
2018-10-18T08:00:54.497Z,19.25
2018-10-18T08:01:54.649Z,19.25
2018-10-18T08:02:54.669Z,19.24
2018-10-18T08:03:54.330Z,19.23
2018-10-18T08:04:54.271Z,19.24
2018-10-18T08:05:54.506Z,19.24
2018-10-18T08:06:54.493Z,19.25
2018-10-18T08:07:54.420Z,19.24
2018-10-18T08:08:54.388Z,19.25
2018-10-18T08:09:54.472Z,19.24
2018-10-18T08:10:54.591Z,19.24
2018-10-18T08:11:54.671Z,19.25
2018-10-18T08:12:54.530Z,19.26
2018-10-18T08:13:54.927Z,19.26
2018-10-18T08:14:54.500Z,19.25
2018-10-18T08:15:54.586Z,19.24
2018-10-18T08:16:54.786Z,19.25
2018-10-18T08:17:54.572Z,19.26
2018-10-18T08:18:54.552Z,19.26
2018-10-18T08:19:54.543Z,19.25
2018-10-18T08:20:54.371Z,19.26
2018-10-18T08:21:54.705Z,19.25
2018-10-18T08:22:54.471Z,19.25
2018-10-18T08:23:54.493Z,19.26
2018-10-18T08:24:54.678Z,19.25
2018-10-18T08:25:54.543Z,19.25
2018-10-18T08:26:54.674Z,19.24
2018-10-18T08:27:54.591Z,19.26
2018-10-18T08:28:54.543Z,19.25
2018-10-18T08:29:54.618Z,19.27
2018-10-18T08:30:54.514Z,19.25
2018-10-18T08:31:54.435Z,19.26
2018-10-18T08:32:54.507Z,19.25
2018-10-18T08:33:54.391Z,19.26
2018-10-18T08:34:54.476Z,19.25
2018-10-18T08:35:54.322Z,19.26
2018-10-18T08:36:54.502Z,19.24
2018-10-18T08:37:54.655Z,19.25
2018-10-18T08:38:54.447Z,19.24
2018-10-18T08:39:54.638Z,19.24
2018-10-18T08:40:54.745Z,19.25
2018-10-18T08:41:54.589Z,19.26
2018-10-18T08:42:54.596Z,19.25
2018-10-18T08:43:54.550Z,19.26
2018-10-18T08:44:54.430Z,19.26
2018-10-18T08:45:54.393Z,19.25
2018-10-18T08:46:54.478Z,19.26
2018-10-18T08:47:54.729Z,19.25
2018-10-18T08:48:54.470Z,19.26
2018-10-18T08:49:54.597Z,19.26
2018-10-18T08:50:54.313Z,19.26
2018-10-18T08:51:54.405Z,19.26
2018-10-18T08:52:54.639Z,19.27
2018-10-18T08:53:54.290Z,19.26
2018-10-18T08:54:54.783Z,19.25
2018-10-18T08:55:54.844Z,19.26
2018-10-18T08:56:54.299Z,19.26
2018-10-18T08:57:54.278Z,19.26
2018-10-18T08:58:54.463Z,19.26
2018-10-18T08:59:54.377Z,19.26
2018-10-18T09:00:54.741Z,19.26
2018-10-18T09:01:54.570Z,19.26
2018-10-18T09:02:54.561Z,19.27
2018-10-18T09:03:54.347Z,19.25
2018-10-18T09:04:54.548Z,19.26
2018-10-18T09:05:54.624Z,19.26
2018-10-18T09:06:54.378Z,19.26
2018-10-18T09:07:54.533Z,19.27
2018-10-18T09:08:54.606Z,19.27
2018-10-18T09:09:54.631Z,19.26
2018-10-18T09:10:54.664Z,19.26
2018-10-18T09:11:54.643Z,19.27
2018-10-18T09:12:54.265Z,19.27
2018-10-18T09:13:54.375Z,19.28
2018-10-18T09:14:54.541Z,19.26
2018-10-18T09:15:54.605Z,19.26
2018-10-18T09:16:54.507Z,19.26
2018-10-18T09:17:54.496Z,19.27
2018-10-18T09:18:54.567Z,19.26
2018-10-18T09:19:54.289Z,19.28
2018-10-18T09:20:54.706Z,19.27
2018-10-18T09:21:54.591Z,19.27
2018-10-18T09:22:54.531Z,19.27
2018-10-18T09:23:54.447Z,19.27
2018-10-18T09:24:54.646Z,19.27
2018-10-18T09:25:54.284Z,19.27
2018-10-18T09:26:54.264Z,19.27
2018-10-18T09:27:54.449Z,19.27
2018-10-18T09:28:54.675Z,19.27
2018-10-18T09:29:54.298Z,19.27
2018-10-18T09:30:54.716Z,19.28
2018-10-18T09:31:54.454Z,19.27
2018-10-18T09:32:54.775Z,19.28
2018-10-18T09:33:54.551Z,19.28
2018-10-18T09:34:54.405Z,19.27
2018-10-18T09:35:54.431Z,19.28
2018-10-18T09:36:54.380Z,19.27
2018-10-18T09:37:54.511Z,19.27
2018-10-18T09:38:54.628Z,19.27
2018-10-18T09:39:54.636Z,19.28
2018-10-18T09:40:54.638Z,19.28
2018-10-18T09:41:54.607Z,19.29
2018-10-18T09:42:54.769Z,19.27
2018-10-18T09:43:54.510Z,19.28
2018-10-18T09:44:54.687Z,19.28
2018-10-18T09:45:54.885Z,19.29
2018-10-18T09:46:54.746Z,19.29
2018-10-18T09:47:54.314Z,19.29
2018-10-18T09:48:54.368Z,19.27
2018-10-18T09:49:54.479Z,19.28
2018-10-18T09:50:54.689Z,19.29
2018-10-18T09:51:54.506Z,19.29
2018-10-18T09:52:54.639Z,19.29
2018-10-18T09:53:54.298Z,19.3
2018-10-18T09:54:54.612Z,19.3
2018-10-18T09:55:54.966Z,19.3
2018-10-18T09:56:54.606Z,19.3
2018-10-18T09:57:54.663Z,19.29
2018-10-18T09:58:54.245Z,19.3
2018-10-18T09:59:54.422Z,19.28
2018-10-18T10:00:54.533Z,19.29
2018-10-18T10:01:54.238Z,19.29
2018-10-18T10:02:54.146Z,19.3
2018-10-18T10:03:54.635Z,19.29
2018-10-18T10:04:54.731Z,19.28
2018-10-18T10:05:54.483Z,19.29
2018-10-18T10:06:54.514Z,19.29
2018-10-18T10:07:54.309Z,19.29
2018-10-18T10:08:54.358Z,19.3
2018-10-18T10:09:54.578Z,19.3
2018-10-18T10:10:54.209Z,19.3
2018-10-18T10:11:54.840Z,19.3
2018-10-18T10:12:54.853Z,19.32
2018-10-18T10:13:54.509Z,19.3
2018-10-18T10:14:54.329Z,19.3
2018-10-18T10:15:54.212Z,19.29
2018-10-18T10:16:54.807Z,19.3
2018-10-18T10:17:54.360Z,19.29
2018-10-18T10:18:54.684Z,19.29
2018-10-18T10:19:54.278Z,19.3
2018-10-18T10:20:54.274Z,19.3
2018-10-18T10:21:54.558Z,19.3
2018-10-18T10:22:54.561Z,19.3
2018-10-18T10:23:54.764Z,19.3
2018-10-18T10:24:54.151Z,19.3
2018-10-18T10:25:54.316Z,19.31
2018-10-18T10:26:54.485Z,19.3
2018-10-18T10:27:54.404Z,19.3
2018-10-18T10:28:54.344Z,19.31
2018-10-18T10:29:54.601Z,19.31
2018-10-18T10:30:54.523Z,19.31
2018-10-18T10:31:54.431Z,19.31
2018-10-18T10:32:54.373Z,19.32
2018-10-18T10:33:54.289Z,19.31
2018-10-18T10:34:54.539Z,19.32
2018-10-18T10:35:54.527Z,19.3
2018-10-18T10:36:54.714Z,19.32
2018-10-18T10:37:54.340Z,19.31
2018-10-18T10:38:54.323Z,19.32
2018-10-18T10:39:54.532Z,19.32
2018-10-18T10:40:54.426Z,19.32
2018-10-18T10:41:54.308Z,19.32
2018-10-18T10:42:54.396Z,19.32
2018-10-18T10:43:54.412Z,19.32
2018-10-18T10:44:54.280Z,19.32
2018-10-18T10:45:54.545Z,19.31
2018-10-18T10:46:54.295Z,19.31
2018-10-18T10:47:54.408Z,19.32
2018-10-18T10:48:54.263Z,19.32
2018-10-18T10:49:54.277Z,19.31
2018-10-18T10:50:54.319Z,19.31
2018-10-18T10:51:54.692Z,19.32
2018-10-18T10:52:54.209Z,19.32
2018-10-18T10:53:54.450Z,19.33
2018-10-18T10:54:54.448Z,19.32
2018-10-18T10:55:54.554Z,19.32
2018-10-18T10:56:54.313Z,19.32
2018-10-18T10:57:54.431Z,19.31
2018-10-18T10:58:54.339Z,19.32
2018-10-18T10:59:54.248Z,19.32
2018-10-18T11:00:54.452Z,19.31
2018-10-18T11:01:54.492Z,19.32
2018-10-18T11:02:54.503Z,19.32
2018-10-18T11:03:54.766Z,19.32
2018-10-18T11:04:54.330Z,19.32
2018-10-18T11:05:54.444Z,19.32
2018-10-18T11:06:54.405Z,19.33
2018-10-18T11:07:54.347Z,19.33
2018-10-18T11:08:54.315Z,19.33
2018-10-18T11:09:54.508Z,19.35
2018-10-18T11:10:54.604Z,19.36
2018-10-18T11:11:54.341Z,19.36
2018-10-18T11:12:54.574Z,19.37
2018-10-18T11:13:54.301Z,19.38
2018-10-18T11:14:54.613Z,19.4
2018-10-18T11:15:54.898Z,19.41
2018-10-18T11:16:54.374Z,19.41
2018-10-18T11:17:54.366Z,19.44
2018-10-18T11:18:54.302Z,19.45
2018-10-18T11:19:54.278Z,19.47
2018-10-18T11:20:54.681Z,19.44
2018-10-18T11:21:54.497Z,19.43
2018-10-18T11:22:54.352Z,19.41
2018-10-18T11:23:54.260Z,19.42
2018-10-18T11:24:54.649Z,19.42
2018-10-18T11:25:54.647Z,19.41
2018-10-18T11:26:54.333Z,19.41
2018-10-18T11:27:54.157Z,19.4
2018-10-18T11:28:54.841Z,19.39
2018-10-18T11:29:54.655Z,19.39
2018-10-18T11:30:54.142Z,19.39
2018-10-18T11:31:54.945Z,19.39
2018-10-18T11:32:54.512Z,19.38
2018-10-18T11:33:54.361Z,19.38
2018-10-18T11:34:54.360Z,19.37
2018-10-18T11:35:54.349Z,19.37
2018-10-18T11:36:54.533Z,19.37
2018-10-18T11:37:54.588Z,19.37
2018-10-18T11:38:54.416Z,19.37
2018-10-18T11:39:54.219Z,19.36
2018-10-18T11:40:54.216Z,19.36
2018-10-18T11:41:54.577Z,19.36
2018-10-18T11:42:54.266Z,19.36
2018-10-18T11:43:54.191Z,19.37
2018-10-18T11:44:54.821Z,19.36
2018-10-18T11:45:54.977Z,19.37
2018-10-18T11:46:54.658Z,19.37
2018-10-18T11:47:54.427Z,19.37
2018-10-18T11:48:54.366Z,19.36
2018-10-18T11:49:54.580Z,19.36
2018-10-18T11:50:54.389Z,19.36
2018-10-18T11:51:54.370Z,19.37
2018-10-18T11:52:54.492Z,19.36
2018-10-18T11:53:54.591Z,19.36
2018-10-18T11:54:54.692Z,19.36
2018-10-18T11:55:54.344Z,19.35
2018-10-18T11:56:54.592Z,19.36
2018-10-18T11:57:54.304Z,19.36
2018-10-18T11:58:54.576Z,19.36
2018-10-18T11:59:54.621Z,19.36
2018-10-18T12:00:54.282Z,19.35
2018-10-18T12:01:54.427Z,19.36
2018-10-18T12:02:54.629Z,19.36
2018-10-18T12:03:54.283Z,19.35
2018-10-18T12:04:54.667Z,19.36
2018-10-18T12:05:54.258Z,19.37
2018-10-18T12:06:54.609Z,19.37
2018-10-18T12:07:54.589Z,19.36
2018-10-18T12:08:54.180Z,19.36
2018-10-18T12:09:54.315Z,19.36
2018-10-18T12:10:54.296Z,19.35
2018-10-18T12:11:54.292Z,19.35
2018-10-18T12:12:54.350Z,19.35
2018-10-18T12:13:54.275Z,19.36
2018-10-18T12:14:54.734Z,19.35
2018-10-18T12:15:54.252Z,19.35
2018-10-18T12:16:54.343Z,19.35
2018-10-18T12:17:54.232Z,19.35
2018-10-18T12:18:54.475Z,19.35
2018-10-18T12:19:54.292Z,19.35
2018-10-18T12:20:54.485Z,19.35
2018-10-18T12:21:54.338Z,19.35
2018-10-18T12:22:54.313Z,19.36
2018-10-18T12:23:54.169Z,19.34
2018-10-18T12:24:54.160Z,19.36
2018-10-18T12:25:54.765Z,19.35
2018-10-18T12:26:54.566Z,19.35
2018-10-18T12:27:54.256Z,19.36
2018-10-18T12:28:54.341Z,19.35
2018-10-18T12:29:54.263Z,19.35
2018-10-18T12:30:54.267Z,19.34
2018-10-18T12:31:54.388Z,19.35
2018-10-18T12:32:54.254Z,19.35
2018-10-18T12:33:54.583Z,19.35
2018-10-18T12:34:54.323Z,19.34
2018-10-18T12:35:54.284Z,19.36
2018-10-18T12:36:54.561Z,19.35
2018-10-18T12:37:54.590Z,19.35
2018-10-18T12:38:54.220Z,19.35
2018-10-18T12:39:54.272Z,19.35
2018-10-18T12:40:54.308Z,19.35
2018-10-18T12:41:54.417Z,19.35
2018-10-18T12:42:54.351Z,19.35
2018-10-18T12:43:54.663Z,19.35
2018-10-18T12:44:54.659Z,19.36
2018-10-18T12:45:54.272Z,19.34
2018-10-18T12:46:54.639Z,19.35
2018-10-18T12:47:54.416Z,19.35
2018-10-18T12:48:54.354Z,19.35
2018-10-18T12:49:54.386Z,19.36
2018-10-18T12:50:54.128Z,19.34
2018-10-18T12:51:54.341Z,19.35
2018-10-18T12:52:54.220Z,19.36
2018-10-18T12:53:54.301Z,19.36
2018-10-18T12:54:54.488Z,19.36